Hartford, Connecticut
Traffic Map
Current Weather Conditions
Hartford, Connecticut
Clear
Clear
49°
Feels Like: 47°
Wind Chill: 47° Ceiling: Unl
Heat Index: 49° Visibility: 10mi
Dew Point: 45° Wind: 5mph
Humidity: 86% Direction: 170° (S)
Pressure: 29.97in Gusts: 0mph
Raw Report DataKHFD 180453Z AUTO 17004KT 10SM CLR 09/07 A2997 RMK AO2 SLP149 T00940072 402000094
Traffic Incident Summary
Active as of:
Severity:
Category:
InformationThere was an issue retrieving the traffic information for this location. Please try a different location or try again shortly.
Advertisements
Track Severe Weather on mobile